sensor_id;sensor_type;location;lat;lon;timestamp;pressure;altitude;pressure_sealevel;temperature;humidity
73024;BME280;61199;47.526;8.538;2022-08-19T00:01:34;96140.53;;;20.23;77.29
73024;BME280;61199;47.526;8.538;2022-08-19T00:04:07;96136.19;;;20.09;78.28
73024;BME280;61199;47.526;8.538;2022-08-19T00:06:35;96145.72;;;19.97;78.93
73024;BME280;61199;47.526;8.538;2022-08-19T00:09:04;96145.34;;;20.00;79.06
73024;BME280;61199;47.526;8.538;2022-08-19T00:11:31;96141.53;;;20.22;78.34
73024;BME280;61199;47.526;8.538;2022-08-19T00:13:58;96149.97;;;20.32;77.88
73024;BME280;61199;47.526;8.538;2022-08-19T00:16:25;96150.81;;;20.45;77.46
73024;BME280;61199;47.526;8.538;2022-08-19T00:18:55;96152.03;;;20.43;77.16
73024;BME280;61199;47.526;8.538;2022-08-19T00:21:26;96141.81;;;20.46;76.93
73024;BME280;61199;47.526;8.538;2022-08-19T00:23:56;96148.81;;;20.60;76.68
73024;BME280;61199;47.526;8.538;2022-08-19T00:26:27;96142.88;;;20.71;76.35
73024;BME280;61199;47.526;8.538;2022-08-19T00:28:54;96147.34;;;20.58;76.81
73024;BME280;61199;47.526;8.538;2022-08-19T00:31:21;96146.38;;;20.78;76.12
73024;BME280;61199;47.526;8.538;2022-08-19T00:33:48;96151.28;;;20.68;76.32
73024;BME280;61199;47.526;8.538;2022-08-19T00:36:17;96154.13;;;20.67;76.39
73024;BME280;61199;47.526;8.538;2022-08-19T00:38:44;96156.00;;;20.79;76.05
73024;BME280;61199;47.526;8.538;2022-08-19T00:41:15;96159.69;;;20.91;75.47
73024;BME280;61199;47.526;8.538;2022-08-19T00:44:16;96146.59;;;20.96;75.55
73024;BME280;61199;47.526;8.538;2022-08-19T00:46:47;96143.53;;;20.99;75.17
73024;BME280;61199;47.526;8.538;2022-08-19T00:49:40;96149.66;;;21.13;74.90
73024;BME280;61199;47.526;8.538;2022-08-19T00:52:12;96142.28;;;21.14;75.00
73024;BME280;61199;47.526;8.538;2022-08-19T00:54:40;96153.34;;;21.24;74.55
73024;BME280;61199;47.526;8.538;2022-08-19T00:57:10;96148.19;;;20.84;75.58
73024;BME280;61199;47.526;8.538;2022-08-19T00:59:43;96144.69;;;20.71;76.06
73024;BME280;61199;47.526;8.538;2022-08-19T01:02:29;96138.34;;;20.65;76.33
73024;BME280;61199;47.526;8.538;2022-08-19T01:04:56;96144.09;;;20.69;76.36
73024;BME280;61199;47.526;8.538;2022-08-19T01:07:22;96133.47;;;20.95;75.70
73024;BME280;61199;47.526;8.538;2022-08-19T01:09:49;96127.75;;;21.11;74.92
73024;BME280;61199;47.526;8.538;2022-08-19T01:12:16;96135.28;;;21.26;74.26
73024;BME280;61199;47.526;8.538;2022-08-19T01:14:44;96133.03;;;21.36;74.06
73024;BME280;61199;47.526;8.538;2022-08-19T01:17:12;96126.06;;;21.42;74.05
73024;BME280;61199;47.526;8.538;2022-08-19T01:19:42;96118.88;;;21.42;74.21
73024;BME280;61199;47.526;8.538;2022-08-19T01:24:58;96112.50;;;21.50;73.04
73024;BME280;61199;47.526;8.538;2022-08-19T01:27:25;96101.47;;;21.33;73.35
73024;BME280;61199;47.526;8.538;2022-08-19T01:29:55;96109.66;;;21.25;73.71
73024;BME280;61199;47.526;8.538;2022-08-19T01:32:22;96121.75;;;21.28;73.39
73024;BME280;61199;47.526;8.538;2022-08-19T01:34:59;96126.28;;;21.27;73.89
73024;BME280;61199;47.526;8.538;2022-08-19T01:37:28;96125.72;;;21.00;74.73
73024;BME280;61199;47.526;8.538;2022-08-19T01:39:56;96123.19;;;20.79;75.94
73024;BME280;61199;47.526;8.538;2022-08-19T01:42:22;96132.59;;;20.36;77.79
73024;BME280;61199;47.526;8.538;2022-08-19T01:44:56;96122.13;;;20.28;78.36
73024;BME280;61199;47.526;8.538;2022-08-19T01:47:22;96129.50;;;20.39;77.88
73024;BME280;61199;47.526;8.538;2022-08-19T01:49:48;96131.53;;;20.30;77.67
73024;BME280;61199;47.526;8.538;2022-08-19T01:52:15;96126.97;;;20.05;78.88
73024;BME280;61199;47.526;8.538;2022-08-19T01:54:41;96132.09;;;20.13;79.09
73024;BME280;61199;47.526;8.538;2022-08-19T01:57:10;96128.28;;;19.88;79.74
73024;BME280;61199;47.526;8.538;2022-08-19T01:59:39;96124.00;;;19.87;79.91
73024;BME280;61199;47.526;8.538;2022-08-19T02:02:06;96118.06;;;19.85;80.20
73024;BME280;61199;47.526;8.538;2022-08-19T02:04:35;96120.16;;;20.02;79.72
73024;BME280;61199;47.526;8.538;2022-08-19T02:07:04;96107.97;;;20.21;78.94
73024;BME280;61199;47.526;8.538;2022-08-19T02:09:31;96115.44;;;19.98;79.57
73024;BME280;61199;47.526;8.538;2022-08-19T02:11:58;96109.78;;;20.07;78.83
73024;BME280;61199;47.526;8.538;2022-08-19T02:14:24;96111.63;;;20.07;79.25
73024;BME280;61199;47.526;8.538;2022-08-19T02:16:51;96109.75;;;20.01;79.10
73024;BME280;61199;47.526;8.538;2022-08-19T02:19:17;96114.09;;;20.15;79.20
73024;BME280;61199;47.526;8.538;2022-08-19T02:21:43;96116.56;;;20.23;78.71
73024;BME280;61199;47.526;8.538;2022-08-19T02:24:10;96116.88;;;19.94;79.67
73024;BME280;61199;47.526;8.538;2022-08-19T02:26:36;96113.94;;;19.76;80.35
73024;BME280;61199;47.526;8.538;2022-08-19T02:29:03;96114.09;;;19.68;81.29
73024;BME280;61199;47.526;8.538;2022-08-19T02:31:30;96109.47;;;19.83;80.88
73024;BME280;61199;47.526;8.538;2022-08-19T02:33:57;96113.00;;;20.03;79.78
73024;BME280;61199;47.526;8.538;2022-08-19T02:36:24;96120.91;;;19.83;80.16
73024;BME280;61199;47.526;8.538;2022-08-19T02:38:52;96124.91;;;19.60;81.30
73024;BME280;61199;47.526;8.538;2022-08-19T02:41:26;96124.09;;;19.59;81.57
73024;BME280;61199;47.526;8.538;2022-08-19T02:43:55;96132.78;;;19.81;81.32
73024;BME280;61199;47.526;8.538;2022-08-19T02:46:47;96135.19;;;19.76;80.65
73024;BME280;61199;47.526;8.538;2022-08-19T02:49:16;96134.63;;;19.87;81.01
73024;BME280;61199;47.526;8.538;2022-08-19T02:51:44;96124.06;;;20.00;80.07
73024;BME280;61199;47.526;8.538;2022-08-19T02:54:12;96128.34;;;20.01;80.44
73024;BME280;61199;47.526;8.538;2022-08-19T02:56:40;96121.94;;;20.36;79.07
73024;BME280;61199;47.526;8.538;2022-08-19T02:59:07;96120.31;;;20.54;78.09
73024;BME280;61199;47.526;8.538;2022-08-19T03:01:38;96111.34;;;20.75;77.33
73024;BME280;61199;47.526;8.538;2022-08-19T03:04:07;96110.97;;;20.91;76.83
73024;BME280;61199;47.526;8.538;2022-08-19T03:06:42;96109.72;;;21.00;76.04
73024;BME280;61199;47.526;8.538;2022-08-19T03:09:09;96110.50;;;21.13;75.58
73024;BME280;61199;47.526;8.538;2022-08-19T03:11:36;96116.03;;;21.24;74.58
73024;BME280;61199;47.526;8.538;2022-08-19T03:14:04;96119.75;;;21.11;74.98
73024;BME280;61199;47.526;8.538;2022-08-19T03:16:33;96125.72;;;21.00;75.19
73024;BME280;61199;47.526;8.538;2022-08-19T03:19:01;96135.06;;;20.76;76.15
73024;BME280;61199;47.526;8.538;2022-08-19T03:21:31;96124.06;;;20.92;75.64
73024;BME280;61199;47.526;8.538;2022-08-19T03:24:03;96124.03;;;20.99;75.18
73024;BME280;61199;47.526;8.538;2022-08-19T03:26:30;96138.28;;;20.20;78.32
73024;BME280;61199;47.526;8.538;2022-08-19T03:28:57;96135.81;;;20.25;78.52
73024;BME280;61199;47.526;8.538;2022-08-19T03:31:26;96130.56;;;20.57;77.13
73024;BME280;61199;47.526;8.538;2022-08-19T03:34:15;96126.94;;;20.91;76.03
73024;BME280;61199;47.526;8.538;2022-08-19T03:36:44;96118.94;;;21.04;75.61
73024;BME280;61199;47.526;8.538;2022-08-19T03:39:11;96126.91;;;21.10;75.06
73024;BME280;61199;47.526;8.538;2022-08-19T03:41:40;96128.97;;;21.14;74.75
73024;BME280;61199;47.526;8.538;2022-08-19T03:44:10;96127.94;;;21.15;74.87
73024;BME280;61199;47.526;8.538;2022-08-19T03:46:43;96124.44;;;21.28;74.49
73024;BME280;61199;47.526;8.538;2022-08-19T03:49:10;96138.56;;;21.35;73.88
73024;BME280;61199;47.526;8.538;2022-08-19T03:51:40;96126.06;;;21.35;74.02
73024;BME280;61199;47.526;8.538;2022-08-19T03:54:10;96127.28;;;21.39;73.84
73024;BME280;61199;47.526;8.538;2022-08-19T03:56:38;96114.56;;;21.41;73.89
73024;BME280;61199;47.526;8.538;2022-08-19T03:59:08;96103.91;;;21.41;73.77
73024;BME280;61199;47.526;8.538;2022-08-19T04:01:35;96108.19;;;21.49;73.98
73024;BME280;61199;47.526;8.538;2022-08-19T04:04:02;96110.03;;;21.48;73.25
73024;BME280;61199;47.526;8.538;2022-08-19T04:06:33;96110.88;;;21.42;73.35
73024;BME280;61199;47.526;8.538;2022-08-19T04:09:07;96101.00;;;21.49;73.40
73024;BME280;61199;47.526;8.538;2022-08-19T04:11:38;96116.59;;;21.46;73.53
73024;BME280;61199;47.526;8.538;2022-08-19T04:14:15;96112.50;;;21.43;73.14
73024;BME280;61199;47.526;8.538;2022-08-19T04:16:43;96113.75;;;21.47;73.22
73024;BME280;61199;47.526;8.538;2022-08-19T04:19:10;96114.13;;;21.44;73.20
73024;BME280;61199;47.526;8.538;2022-08-19T04:21:37;96111.88;;;21.54;72.16
73024;BME280;61199;47.526;8.538;2022-08-19T04:24:06;96106.72;;;21.59;72.06
73024;BME280;61199;47.526;8.538;2022-08-19T04:26:35;96110.63;;;21.63;72.21
73024;BME280;61199;47.526;8.538;2022-08-19T04:29:12;96112.53;;;21.30;72.97
73024;BME280;61199;47.526;8.538;2022-08-19T04:31:40;96127.09;;;20.83;74.69
73024;BME280;61199;47.526;8.538;2022-08-19T04:34:09;96127.13;;;21.09;74.08
73024;BME280;61199;47.526;8.538;2022-08-19T04:36:40;96125.88;;;21.17;73.70
73024;BME280;61199;47.526;8.538;2022-08-19T04:39:10;96143.91;;;20.90;74.57
73024;BME280;61199;47.526;8.538;2022-08-19T04:41:37;96145.13;;;20.68;75.34
73024;BME280;61199;47.526;8.538;2022-08-19T04:44:22;96147.34;;;20.71;75.45
73024;BME280;61199;47.526;8.538;2022-08-19T04:46:50;96150.25;;;20.69;75.46
73024;BME280;61199;47.526;8.538;2022-08-19T04:49:19;96140.00;;;20.79;75.24
73024;BME280;61199;47.526;8.538;2022-08-19T04:51:46;96130.00;;;21.01;74.46
73024;BME280;61199;47.526;8.538;2022-08-19T04:54:17;96135.34;;;21.01;74.74
73024;BME280;61199;47.526;8.538;2022-08-19T04:57:05;96137.16;;;21.07;74.37
73024;BME280;61199;47.526;8.538;2022-08-19T04:59:33;96145.34;;;21.18;73.80
73024;BME280;61199;47.526;8.538;2022-08-19T05:02:00;96143.13;;;21.15;73.88
73024;BME280;61199;47.526;8.538;2022-08-19T05:04:26;96148.66;;;21.01;74.26
73024;BME280;61199;47.526;8.538;2022-08-19T05:06:54;96155.81;;;21.19;74.41
73024;BME280;61199;47.526;8.538;2022-08-19T05:09:27;96164.81;;;21.31;73.48
73024;BME280;61199;47.526;8.538;2022-08-19T05:12:13;96168.94;;;21.27;74.15
73024;BME280;61199;47.526;8.538;2022-08-19T05:14:39;96164.63;;;21.33;73.59
73024;BME280;61199;47.526;8.538;2022-08-19T05:17:06;96169.13;;;21.32;73.52
73024;BME280;61199;47.526;8.538;2022-08-19T05:19:52;96165.19;;;21.48;72.68
73024;BME280;61199;47.526;8.538;2022-08-19T05:22:38;96169.28;;;21.50;73.11
73024;BME280;61199;47.526;8.538;2022-08-19T05:25:08;96166.25;;;21.40;73.40
73024;BME280;61199;47.526;8.538;2022-08-19T05:27:39;96174.63;;;21.50;72.95
73024;BME280;61199;47.526;8.538;2022-08-19T05:30:06;96183.84;;;21.48;73.20
73024;BME280;61199;47.526;8.538;2022-08-19T05:32:33;96181.81;;;21.56;72.81
73024;BME280;61199;47.526;8.538;2022-08-19T05:34:59;96193.06;;;21.58;72.56
73024;BME280;61199;47.526;8.538;2022-08-19T05:37:25;96193.28;;;21.50;72.97
73024;BME280;61199;47.526;8.538;2022-08-19T05:39:53;96192.88;;;21.53;72.98
73024;BME280;61199;47.526;8.538;2022-08-19T05:42:20;96192.03;;;21.59;73.38
73024;BME280;61199;47.526;8.538;2022-08-19T05:44:49;96204.56;;;21.52;72.78
73024;BME280;61199;47.526;8.538;2022-08-19T05:47:16;96203.94;;;21.50;71.94
73024;BME280;61199;47.526;8.538;2022-08-19T05:49:45;96190.41;;;21.58;72.21
73024;BME280;61199;47.526;8.538;2022-08-19T05:52:14;96201.06;;;21.58;72.79
73024;BME280;61199;47.526;8.538;2022-08-19T05:54:44;96198.81;;;21.49;73.05
73024;BME280;61199;47.526;8.538;2022-08-19T05:57:17;96206.84;;;21.16;73.08
73024;BME280;61199;47.526;8.538;2022-08-19T05:59:43;96192.50;;;21.05;73.33
73024;BME280;61199;47.526;8.538;2022-08-19T06:02:12;96195.56;;;21.02;73.74
73024;BME280;61199;47.526;8.538;2022-08-19T06:04:39;96194.94;;;21.19;73.60
73024;BME280;61199;47.526;8.538;2022-08-19T06:07:08;96191.47;;;21.31;73.53
73024;BME280;61199;47.526;8.538;2022-08-19T06:09:38;96184.91;;;21.34;73.13
73024;BME280;61199;47.526;8.538;2022-08-19T06:12:05;96185.50;;;21.42;72.55
73024;BME280;61199;47.526;8.538;2022-08-19T06:14:34;96185.94;;;21.39;72.79
73024;BME280;61199;47.526;8.538;2022-08-19T06:17:07;96187.97;;;21.50;72.37
73024;BME280;61199;47.526;8.538;2022-08-19T06:19:34;96182.63;;;21.50;72.77
73024;BME280;61199;47.526;8.538;2022-08-19T06:22:06;96187.94;;;21.57;72.33
73024;BME280;61199;47.526;8.538;2022-08-19T06:24:33;96190.81;;;21.49;72.01
73024;BME280;61199;47.526;8.538;2022-08-19T06:27:01;96182.19;;;21.53;72.22
73024;BME280;61199;47.526;8.538;2022-08-19T06:29:28;96187.53;;;21.53;72.11
73024;BME280;61199;47.526;8.538;2022-08-19T06:31:57;96185.94;;;21.39;72.88
73024;BME280;61199;47.526;8.538;2022-08-19T06:34:25;96183.88;;;21.41;72.46
73024;BME280;61199;47.526;8.538;2022-08-19T06:36:54;96192.88;;;20.89;74.17
73024;BME280;61199;47.526;8.538;2022-08-19T06:39:23;96189.63;;;21.19;73.42
73024;BME280;61199;47.526;8.538;2022-08-19T06:41:53;96197.84;;;21.24;73.10
73024;BME280;61199;47.526;8.538;2022-08-19T06:44:29;96189.84;;;21.24;72.74
73024;BME280;61199;47.526;8.538;2022-08-19T06:46:57;96190.25;;;21.02;73.33
73024;BME280;61199;47.526;8.538;2022-08-19T06:49:23;96183.47;;;21.25;72.92
73024;BME280;61199;47.526;8.538;2022-08-19T06:51:51;96197.81;;;21.30;72.95
73024;BME280;61199;47.526;8.538;2022-08-19T06:54:18;96193.94;;;21.33;73.02
73024;BME280;61199;47.526;8.538;2022-08-19T06:56:46;96204.75;;;21.44;72.85
73024;BME280;61199;47.526;8.538;2022-08-19T06:59:18;96197.81;;;21.50;72.38
73024;BME280;61199;47.526;8.538;2022-08-19T07:01:50;96196.75;;;21.64;72.03
73024;BME280;61199;47.526;8.538;2022-08-19T07:04:21;96195.38;;;21.68;71.98
73024;BME280;61199;47.526;8.538;2022-08-19T07:06:52;96200.69;;;21.68;72.55
73024;BME280;61199;47.526;8.538;2022-08-19T07:09:26;96199.00;;;21.60;72.44
73024;BME280;61199;47.526;8.538;2022-08-19T07:11:55;96203.13;;;21.69;71.89
73024;BME280;61199;47.526;8.538;2022-08-19T07:14:25;96197.00;;;21.69;71.25
73024;BME280;61199;47.526;8.538;2022-08-19T07:16:54;96204.75;;;21.77;71.21
73024;BME280;61199;47.526;8.538;2022-08-19T07:19:23;96208.66;;;21.81;71.54
73024;BME280;61199;47.526;8.538;2022-08-19T07:21:53;96209.72;;;21.47;72.14
73024;BME280;61199;47.526;8.538;2022-08-19T07:24:22;96211.31;;;21.61;71.80
73024;BME280;61199;47.526;8.538;2022-08-19T07:26:51;96206.00;;;21.74;71.13
73024;BME280;61199;47.526;8.538;2022-08-19T07:29:19;96220.75;;;21.83;71.37
73024;BME280;61199;47.526;8.538;2022-08-19T07:31:52;96215.84;;;21.87;71.54
73024;BME280;61199;47.526;8.538;2022-08-19T07:34:19;96224.63;;;21.94;71.09
73024;BME280;61199;47.526;8.538;2022-08-19T07:36:45;96220.34;;;21.80;70.87
73024;BME280;61199;47.526;8.538;2022-08-19T07:39:16;96222.00;;;21.81;70.79
73024;BME280;61199;47.526;8.538;2022-08-19T07:41:45;96227.31;;;21.61;70.91
73024;BME280;61199;47.526;8.538;2022-08-19T07:44:12;96222.81;;;21.42;71.73
73024;BME280;61199;47.526;8.538;2022-08-19T07:46:43;96225.31;;;21.37;72.14
73024;BME280;61199;47.526;8.538;2022-08-19T07:49:13;96232.66;;;21.29;72.57
73024;BME280;61199;47.526;8.538;2022-08-19T07:51:48;96234.84;;;20.74;75.00
73024;BME280;61199;47.526;8.538;2022-08-19T07:54:15;96241.25;;;20.99;74.23
73024;BME280;61199;47.526;8.538;2022-08-19T07:56:41;96238.13;;;20.76;74.86
73024;BME280;61199;47.526;8.538;2022-08-19T07:59:08;96234.84;;;20.74;74.52
73024;BME280;61199;47.526;8.538;2022-08-19T08:01:36;96233.38;;;20.65;75.70
73024;BME280;61199;47.526;8.538;2022-08-19T08:04:07;96241.16;;;20.66;75.03
73024;BME280;61199;47.526;8.538;2022-08-19T08:06:53;96250.66;;;20.88;74.49
73024;BME280;61199;47.526;8.538;2022-08-19T08:09:41;96253.75;;;20.92;74.48
73024;BME280;61199;47.526;8.538;2022-08-19T08:12:18;96266.28;;;21.11;73.69
73024;BME280;61199;47.526;8.538;2022-08-19T08:15:02;96264.41;;;21.17;73.11
73024;BME280;61199;47.526;8.538;2022-08-19T08:17:34;96264.25;;;21.32;72.42
73024;BME280;61199;47.526;8.538;2022-08-19T08:20:17;96272.63;;;21.35;72.21
73024;BME280;61199;47.526;8.538;2022-08-19T08:22:45;96270.81;;;21.29;72.58
73024;BME280;61199;47.526;8.538;2022-08-19T08:25:30;96273.25;;;21.12;73.03
73024;BME280;61199;47.526;8.538;2022-08-19T08:27:57;96278.00;;;20.63;74.66
73024;BME280;61199;47.526;8.538;2022-08-19T08:30:27;96276.06;;;20.44;76.17
73024;BME280;61199;47.526;8.538;2022-08-19T08:32:56;96288.78;;;20.42;76.28
73024;BME280;61199;47.526;8.538;2022-08-19T08:35:24;96284.47;;;20.41;76.47
73024;BME280;61199;47.526;8.538;2022-08-19T08:37:52;96290.06;;;20.12;77.47
73024;BME280;61199;47.526;8.538;2022-08-19T08:45:43;96299.00;;;19.49;80.35
73024;BME280;61199;47.526;8.538;2022-08-19T08:48:38;96306.69;;;19.38;80.39
73024;BME280;61199;47.526;8.538;2022-08-19T08:51:12;96312.47;;;19.48;80.69
73024;BME280;61199;47.526;8.538;2022-08-19T08:53:46;96316.50;;;19.65;79.66
73024;BME280;61199;47.526;8.538;2022-08-19T08:56:21;96312.69;;;19.74;79.33
73024;BME280;61199;47.526;8.538;2022-08-19T09:01:48;96317.31;;;19.93;78.86
73024;BME280;61199;47.526;8.538;2022-08-19T09:04:15;96317.81;;;20.03;78.45
73024;BME280;61199;47.526;8.538;2022-08-19T09:06:50;96329.00;;;20.26;77.65
73024;BME280;61199;47.526;8.538;2022-08-19T09:09:29;96328.13;;;20.53;76.91
73024;BME280;61199;47.526;8.538;2022-08-19T09:17:19;96326.53;;;20.18;77.56
73024;BME280;61199;47.526;8.538;2022-08-19T09:19:53;96328.41;;;19.96;78.79
73024;BME280;61199;47.526;8.538;2022-08-19T09:22:20;96328.50;;;19.82;78.84
73024;BME280;61199;47.526;8.538;2022-08-19T09:24:53;96326.47;;;19.84;79.75
73024;BME280;61199;47.526;8.538;2022-08-19T09:27:20;96334.66;;;19.89;79.39
73024;BME280;61199;47.526;8.538;2022-08-19T09:30:09;96335.09;;;19.92;79.21
73024;BME280;61199;47.526;8.538;2022-08-19T09:32:36;96333.06;;;19.67;79.83
73024;BME280;61199;47.526;8.538;2022-08-19T09:35:05;96335.69;;;19.88;79.64
73024;BME280;61199;47.526;8.538;2022-08-19T09:37:34;96335.56;;;20.02;78.78
73024;BME280;61199;47.526;8.538;2022-08-19T09:40:01;96335.03;;;20.07;78.43
73024;BME280;61199;47.526;8.538;2022-08-19T09:42:28;96341.56;;;20.38;77.40
73024;BME280;61199;47.526;8.538;2022-08-19T09:45:00;96343.00;;;20.41;76.87
73024;BME280;61199;47.526;8.538;2022-08-19T09:47:30;96344.97;;;20.26;77.75
73024;BME280;61199;47.526;8.538;2022-08-19T09:49:57;96352.88;;;20.47;77.17
73024;BME280;61199;47.526;8.538;2022-08-19T09:52:24;96352.66;;;20.48;76.50
73024;BME280;61199;47.526;8.538;2022-08-19T09:54:58;96355.53;;;20.40;77.22
73024;BME280;61199;47.526;8.538;2022-08-19T09:57:25;96362.06;;;20.10;78.00
73024;BME280;61199;47.526;8.538;2022-08-19T09:59:51;96356.00;;;20.23;78.70
73024;BME280;61199;47.526;8.538;2022-08-19T10:02:17;96362.84;;;20.38;77.14
73024;BME280;61199;47.526;8.538;2022-08-19T10:04:47;96364.78;;;19.96;78.88
73024;BME280;61199;47.526;8.538;2022-08-19T10:07:32;96363.28;;;20.08;78.49
73024;BME280;61199;47.526;8.538;2022-08-19T10:10:04;96364.34;;;19.92;79.61
73024;BME280;61199;47.526;8.538;2022-08-19T10:12:33;96373.03;;;20.01;79.22
73024;BME280;61199;47.526;8.538;2022-08-19T10:15:00;96368.88;;;19.92;79.44
73024;BME280;61199;47.526;8.538;2022-08-19T10:17:27;96370.63;;;20.06;79.00
73024;BME280;61199;47.526;8.538;2022-08-19T10:19:59;96372.38;;;20.20;78.41
73024;BME280;61199;47.526;8.538;2022-08-19T10:22:26;96371.66;;;20.05;79.46
73024;BME280;61199;47.526;8.538;2022-08-19T10:24:52;96373.91;;;20.08;78.90
73024;BME280;61199;47.526;8.538;2022-08-19T10:27:19;96376.72;;;20.00;79.59
73024;BME280;61199;47.526;8.538;2022-08-19T10:29:46;96380.00;;;20.02;79.24
73024;BME280;61199;47.526;8.538;2022-08-19T10:32:13;96372.59;;;20.25;78.41
73024;BME280;61199;47.526;8.538;2022-08-19T10:34:40;96377.00;;;20.39;77.50
73024;BME280;61199;47.526;8.538;2022-08-19T10:37:18;96371.47;;;20.06;79.30
73024;BME280;61199;47.526;8.538;2022-08-19T10:39:54;96373.53;;;19.90;79.82
73024;BME280;61199;47.526;8.538;2022-08-19T10:42:21;96373.53;;;19.90;80.14
73024;BME280;61199;47.526;8.538;2022-08-19T10:44:47;96376.97;;;19.84;80.16
73024;BME280;61199;47.526;8.538;2022-08-19T10:47:17;96374.41;;;19.69;80.59
73024;BME280;61199;47.526;8.538;2022-08-19T10:49:52;96376.97;;;19.84;80.84
73024;BME280;61199;47.526;8.538;2022-08-19T10:52:40;96380.94;;;19.94;79.60
73024;BME280;61199;47.526;8.538;2022-08-19T10:55:20;96378.84;;;20.11;79.68
73024;BME280;61199;47.526;8.538;2022-08-19T10:58:13;96381.00;;;20.01;79.53
73024;BME280;61199;47.526;8.538;2022-08-19T11:00:41;96378.13;;;20.02;79.47
73024;BME280;61199;47.526;8.538;2022-08-19T11:03:09;96376.50;;;20.01;79.44
73024;BME280;61199;47.526;8.538;2022-08-19T11:05:36;96375.78;;;19.65;80.70
73024;BME280;61199;47.526;8.538;2022-08-19T11:08:06;96373.09;;;19.59;81.17
73024;BME280;61199;47.526;8.538;2022-08-19T11:10:49;96375.50;;;19.54;81.14
73024;BME280;61199;47.526;8.538;2022-08-19T11:13:16;96380.81;;;19.54;81.35
73024;BME280;61199;47.526;8.538;2022-08-19T11:15:42;96384.34;;;19.40;81.63
73024;BME280;61199;47.526;8.538;2022-08-19T11:18:09;96386.13;;;19.54;81.53
73024;BME280;61199;47.526;8.538;2022-08-19T11:20:38;96396.69;;;19.47;82.17
73024;BME280;61199;47.526;8.538;2022-08-19T11:23:05;96398.50;;;19.26;81.86
73024;BME280;61199;47.526;8.538;2022-08-19T11:25:31;96397.25;;;19.43;82.81
73024;BME280;61199;47.526;8.538;2022-08-19T11:27:58;96401.94;;;19.83;81.44
73024;BME280;61199;47.526;8.538;2022-08-19T11:30:24;96399.06;;;19.84;80.12
73024;BME280;61199;47.526;8.538;2022-08-19T11:32:50;96400.78;;;19.92;80.51
73024;BME280;61199;47.526;8.538;2022-08-19T11:35:17;96405.22;;;19.85;79.88
73024;BME280;61199;47.526;8.538;2022-08-19T11:37:46;96407.25;;;20.04;79.83
73024;BME280;61199;47.526;8.538;2022-08-19T11:40:12;96399.63;;;19.80;80.09
73024;BME280;61199;47.526;8.538;2022-08-19T11:42:38;96408.00;;;19.77;80.64
73024;BME280;61199;47.526;8.538;2022-08-19T11:45:25;96403.06;;;19.74;80.38
73024;BME280;61199;47.526;8.538;2022-08-19T11:47:52;96408.75;;;19.92;80.49
73024;BME280;61199;47.526;8.538;2022-08-19T11:50:19;96411.75;;;20.31;79.06
73024;BME280;61199;47.526;8.538;2022-08-19T11:52:46;96414.72;;;20.49;78.55
73024;BME280;61199;47.526;8.538;2022-08-19T11:55:13;96402.19;;;20.77;77.07
73024;BME280;61199;47.526;8.538;2022-08-19T11:57:40;96411.03;;;20.50;77.50
73024;BME280;61199;47.526;8.538;2022-08-19T12:00:07;96420.81;;;20.43;78.12
73024;BME280;61199;47.526;8.538;2022-08-19T12:02:34;96416.75;;;20.19;78.48
73024;BME280;61199;47.526;8.538;2022-08-19T12:05:01;96406.75;;;20.49;77.80
73024;BME280;61199;47.526;8.538;2022-08-19T12:07:36;96416.66;;;20.34;78.25
73024;BME280;61199;47.526;8.538;2022-08-19T12:10:03;96416.09;;;20.11;78.78
73024;BME280;61199;47.526;8.538;2022-08-19T12:12:30;96409.91;;;20.04;79.82
73024;BME280;61199;47.526;8.538;2022-08-19T12:14:56;96406.94;;;19.99;79.93
73024;BME280;61199;47.526;8.538;2022-08-19T12:17:26;96410.38;;;20.14;80.18
73024;BME280;61199;47.526;8.538;2022-08-19T12:19:53;96405.75;;;20.01;80.15
73024;BME280;61199;47.526;8.538;2022-08-19T12:22:20;96408.00;;;19.77;80.89
73024;BME280;61199;47.526;8.538;2022-08-19T12:24:47;96412.13;;;19.79;81.42
73024;BME280;61199;47.526;8.538;2022-08-19T12:27:17;96412.06;;;19.73;81.87
73024;BME280;61199;47.526;8.538;2022-08-19T12:30:04;96414.47;;;20.10;80.79
73024;BME280;61199;47.526;8.538;2022-08-19T12:32:32;96409.44;;;20.00;81.32
73024;BME280;61199;47.526;8.538;2022-08-19T12:34:59;96413.50;;;19.96;80.37
73024;BME280;61199;47.526;8.538;2022-08-19T12:37:25;96404.09;;;20.00;80.86
73024;BME280;61199;47.526;8.538;2022-08-19T12:39:51;96408.13;;;20.11;80.79
73024;BME280;61199;47.526;8.538;2022-08-19T12:42:18;96406.81;;;20.28;80.48
73024;BME280;61199;47.526;8.538;2022-08-19T12:44:45;96412.13;;;20.28;80.35
73024;BME280;61199;47.526;8.538;2022-08-19T12:47:12;96400.00;;;20.53;79.48
73024;BME280;61199;47.526;8.538;2022-08-19T12:49:41;96399.63;;;20.56;79.26
73024;BME280;61199;47.526;8.538;2022-08-19T12:52:20;96409.44;;;20.55;79.29
73024;BME280;61199;47.526;8.538;2022-08-19T12:54:49;96401.28;;;20.63;79.07
73024;BME280;61199;47.526;8.538;2022-08-19T12:57:20;96400.94;;;20.73;79.16
73024;BME280;61199;47.526;8.538;2022-08-19T12:59:53;96393.88;;;20.52;78.89
73024;BME280;61199;47.526;8.538;2022-08-19T13:02:20;96397.97;;;20.55;79.30
73024;BME280;61199;47.526;8.538;2022-08-19T13:04:46;96403.69;;;20.58;79.90
73024;BME280;61199;47.526;8.538;2022-08-19T13:07:12;96401.88;;;20.59;80.69
73024;BME280;61199;47.526;8.538;2022-08-19T13:09:39;96402.34;;;20.69;79.49
73024;BME280;61199;47.526;8.538;2022-08-19T13:12:08;96398.34;;;20.52;80.07
73024;BME280;61199;47.526;8.538;2022-08-19T13:14:39;96411.09;;;20.63;79.70
73024;BME280;61199;47.526;8.538;2022-08-19T13:17:06;96408.94;;;20.39;80.59
73024;BME280;61199;47.526;8.538;2022-08-19T13:19:33;96408.56;;;20.14;80.81
73024;BME280;61199;47.526;8.538;2022-08-19T13:22:02;96406.13;;;20.47;80.56
73024;BME280;61199;47.526;8.538;2022-08-19T13:24:28;96406.13;;;20.47;80.91
73024;BME280;61199;47.526;8.538;2022-08-19T13:27:00;96405.84;;;20.69;80.09
73024;BME280;61199;47.526;8.538;2022-08-19T13:29:26;96411.50;;;20.60;78.68
73024;BME280;61199;47.526;8.538;2022-08-19T13:32:11;96409.47;;;20.62;79.42